createdAt,value
2018-09-09T00:00:07.557Z,13.10
2018-09-09T00:02:35.453Z,13.10
2018-09-09T00:05:03.609Z,13.10
2018-09-09T00:07:31.564Z,13.20
2018-09-09T00:09:59.456Z,13.10
2018-09-09T00:12:27.429Z,13.10
2018-09-09T00:14:55.405Z,13.10
2018-09-09T00:17:23.381Z,13.10
2018-09-09T00:19:51.325Z,13.00
2018-09-09T00:22:19.280Z,12.90
2018-09-09T00:24:47.148Z,12.90
2018-09-09T00:27:15.134Z,12.90
2018-09-09T00:29:43.084Z,12.90
2018-09-09T00:32:11.012Z,12.90
2018-09-09T00:34:38.993Z,12.90
2018-09-09T00:37:06.885Z,12.90
2018-09-09T00:39:34.774Z,12.90
2018-09-09T00:42:02.729Z,12.90
2018-09-09T00:44:30.707Z,12.90
2018-09-09T00:46:58.660Z,12.80
2018-09-09T00:49:32.287Z,12.80
2018-09-09T00:52:05.754Z,12.90
2018-09-09T00:54:33.700Z,12.90
2018-09-09T00:57:01.650Z,12.90
2018-09-09T00:59:29.616Z,12.90
2018-09-09T01:01:57.601Z,12.80
2018-09-09T01:04:25.536Z,12.80
2018-09-09T01:06:53.461Z,12.70
2018-09-09T01:09:25.841Z,12.70
2018-09-09T01:11:53.757Z,12.60
2018-09-09T01:14:21.731Z,12.60
2018-09-09T01:16:49.767Z,12.60
2018-09-09T01:19:17.711Z,12.60
2018-09-09T01:21:45.705Z,12.60
2018-09-09T01:24:13.600Z,12.60
2018-09-09T01:26:41.545Z,12.60
2018-09-09T01:29:09.522Z,12.60
2018-09-09T01:31:37.493Z,12.50
2018-09-09T01:34:05.476Z,12.50
2018-09-09T01:36:33.431Z,12.40
2018-09-09T01:39:01.460Z,12.30
2018-09-09T01:41:29.444Z,12.30
2018-09-09T01:43:57.460Z,12.30
2018-09-09T01:46:25.413Z,12.30
2018-09-09T01:48:53.377Z,12.30
2018-09-09T01:51:21.342Z,12.20
2018-09-09T01:53:49.304Z,12.20
2018-09-09T01:56:17.297Z,12.20
2018-09-09T01:58:45.212Z,12.10
2018-09-09T02:01:13.191Z,12.10
2018-09-09T02:03:41.287Z,12.00
2018-09-09T02:06:09.328Z,12.00
2018-09-09T02:08:37.252Z,11.90
2018-09-09T02:11:05.220Z,11.90
2018-09-09T02:13:33.112Z,11.80
2018-09-09T02:16:01.324Z,11.80
2018-09-09T02:18:29.249Z,11.80
2018-09-09T02:20:57.214Z,11.70
2018-09-09T02:23:25.271Z,11.70
2018-09-09T02:25:53.411Z,11.60
2018-09-09T02:28:21.333Z,11.60
2018-09-09T02:30:49.303Z,11.50
2018-09-09T02:33:17.308Z,11.50
2018-09-09T02:35:45.284Z,11.50
2018-09-09T02:38:13.237Z,11.50
2018-09-09T02:40:41.560Z,11.50
2018-09-09T02:43:09.568Z,11.50
2018-09-09T02:45:37.552Z,11.50
2018-09-09T02:48:05.546Z,11.50
2018-09-09T02:50:33.461Z,11.50
2018-09-09T02:53:01.432Z,11.50
2018-09-09T02:55:29.886Z,11.50
2018-09-09T02:57:57.863Z,11.50
2018-09-09T03:00:25.853Z,11.50
2018-09-09T03:02:53.949Z,11.40
2018-09-09T03:05:21.875Z,11.40
2018-09-09T03:07:49.889Z,11.40
2018-09-09T03:10:17.794Z,11.40
2018-09-09T03:12:45.720Z,11.40
2018-09-09T03:15:13.674Z,11.40
2018-09-09T03:17:41.657Z,11.30
2018-09-09T03:20:09.558Z,11.30
2018-09-09T03:22:37.551Z,11.30
2018-09-09T03:25:05.520Z,11.30
2018-09-09T03:27:33.421Z,11.20
2018-09-09T03:30:01.379Z,11.10
2018-09-09T03:32:29.318Z,11.30
2018-09-09T03:34:57.329Z,11.30
2018-09-09T03:37:25.245Z,11.40
2018-09-09T03:39:53.195Z,11.40
2018-09-09T03:42:21.117Z,11.30
2018-09-09T03:44:49.101Z,11.20
2018-09-09T03:47:17.013Z,11.20
2018-09-09T03:49:45.005Z,11.10
2018-09-09T03:52:12.949Z,11.00
2018-09-09T03:54:40.901Z,11.00
2018-09-09T03:57:08.888Z,11.00
2018-09-09T03:59:36.863Z,11.10
2018-09-09T04:02:04.951Z,11.30
2018-09-09T04:04:32.903Z,11.40
2018-09-09T04:07:00.890Z,11.40
2018-09-09T04:09:28.878Z,11.50
2018-09-09T04:11:56.793Z,11.40
2018-09-09T04:14:31.293Z,11.40
2018-09-09T04:16:59.261Z,11.40
2018-09-09T04:19:27.206Z,11.30
2018-09-09T04:21:55.146Z,11.30
2018-09-09T04:24:23.596Z,11.20
2018-09-09T04:26:51.490Z,11.30
2018-09-09T04:29:19.456Z,11.20
2018-09-09T04:31:47.349Z,11.20
2018-09-09T04:34:15.317Z,11.40
2018-09-09T04:36:43.298Z,11.20
2018-09-09T04:39:12.996Z,11.10
2018-09-09T04:41:41.209Z,11.10
2018-09-09T04:44:10.265Z,11.00
2018-09-09T04:46:38.332Z,10.90
2018-09-09T04:49:06.641Z,10.90
2018-09-09T04:51:34.586Z,10.90
2018-09-09T04:54:02.519Z,10.90
2018-09-09T04:56:30.528Z,10.80
2018-09-09T04:58:58.497Z,10.80
2018-09-09T05:01:26.539Z,10.90
2018-09-09T05:03:54.408Z,10.90
2018-09-09T05:06:22.276Z,10.90
2018-09-09T05:08:50.235Z,11.00
2018-09-09T05:11:18.214Z,11.00
2018-09-09T05:13:46.202Z,11.00
2018-09-09T05:16:14.089Z,11.00
2018-09-09T05:18:42.073Z,11.00
2018-09-09T05:21:10.012Z,11.00
2018-09-09T05:23:37.935Z,11.00
2018-09-09T05:26:05.988Z,11.10
2018-09-09T05:28:33.906Z,11.30
2018-09-09T05:31:01.805Z,11.40
2018-09-09T05:33:29.763Z,11.50
2018-09-09T05:35:57.957Z,11.70
2018-09-09T05:38:26.013Z,11.80
2018-09-09T05:40:53.947Z,11.90
2018-09-09T05:43:21.925Z,12.00
2018-09-09T05:45:49.925Z,12.00
2018-09-09T05:48:17.852Z,12.00
2018-09-09T05:50:46.178Z,12.10
2018-09-09T05:53:14.091Z,12.20
2018-09-09T05:55:42.173Z,12.10
2018-09-09T05:58:10.112Z,12.10
2018-09-09T06:00:38.096Z,12.10
2018-09-09T06:03:06.025Z,12.10
2018-09-09T06:05:33.973Z,12.20
2018-09-09T06:08:01.921Z,12.30
2018-09-09T06:10:29.866Z,12.40
2018-09-09T06:12:58.171Z,12.50
2018-09-09T06:15:26.218Z,12.60
2018-09-09T06:17:54.122Z,12.80
2018-09-09T06:20:22.059Z,12.90
2018-09-09T06:22:50.051Z,13.00
2018-09-09T06:25:18.022Z,13.10
2018-09-09T06:27:45.952Z,13.20
2018-09-09T06:30:13.870Z,13.30
2018-09-09T06:32:41.846Z,13.40
2018-09-09T06:35:09.912Z,13.60
2018-09-09T06:37:37.984Z,13.60
2018-09-09T06:40:06.320Z,13.80
2018-09-09T06:42:34.315Z,13.90
2018-09-09T06:45:02.311Z,14.00
2018-09-09T06:47:30.271Z,14.00
2018-09-09T06:49:58.170Z,14.10
2018-09-09T06:52:26.084Z,14.30
2018-09-09T06:54:54.068Z,14.40
2018-09-09T06:57:21.985Z,14.40
2018-09-09T06:59:49.916Z,14.60
2018-09-09T07:02:17.897Z,14.60
2018-09-09T07:04:45.751Z,14.70
2018-09-09T07:07:13.701Z,14.90
2018-09-09T07:09:41.684Z,15.00
2018-09-09T07:12:09.553Z,15.00
2018-09-09T07:14:37.540Z,15.10
2018-09-09T07:17:05.526Z,15.20
2018-09-09T07:19:33.505Z,15.30
2018-09-09T07:22:01.441Z,15.40
2018-09-09T07:24:29.372Z,15.50
2018-09-09T07:26:57.288Z,15.60
2018-09-09T07:29:25.246Z,15.70
2018-09-09T07:31:53.214Z,15.80
2018-09-09T07:34:21.235Z,15.80
2018-09-09T07:36:49.081Z,15.90
2018-09-09T07:39:16.965Z,16.00
2018-09-09T07:41:44.909Z,16.10
2018-09-09T07:44:13.496Z,16.20
2018-09-09T07:46:41.457Z,16.30
2018-09-09T07:49:09.438Z,16.40
2018-09-09T07:51:37.429Z,16.60
2018-09-09T07:54:05.382Z,16.70
2018-09-09T07:56:33.326Z,16.80
2018-09-09T07:59:01.242Z,16.90
2018-09-09T08:01:29.123Z,17.00
2018-09-09T08:03:57.037Z,17.10
2018-09-09T08:06:24.948Z,17.20
2018-09-09T08:08:53.037Z,17.30
2018-09-09T08:11:21.112Z,17.40
2018-09-09T08:13:49.129Z,17.60
2018-09-09T08:16:17.137Z,17.70
2018-09-09T08:18:45.077Z,17.80
2018-09-09T08:21:13.072Z,17.90
2018-09-09T08:23:41.120Z,17.90
2018-09-09T08:26:09.075Z,18.00
2018-09-09T08:28:37.073Z,18.10
2018-09-09T08:31:05.049Z,18.20
2018-09-09T08:33:33.079Z,18.30
2018-09-09T08:36:01.084Z,18.40
2018-09-09T08:38:28.992Z,18.50
2018-09-09T08:40:57.041Z,18.60
2018-09-09T08:43:24.982Z,18.70
2018-09-09T08:45:52.938Z,18.80
2018-09-09T08:48:20.955Z,18.90
2018-09-09T08:50:48.943Z,19.10
2018-09-09T08:53:16.897Z,19.20
2018-09-09T08:55:44.925Z,19.40
2018-09-09T08:58:12.859Z,19.40
2018-09-09T09:00:40.784Z,19.50
2018-09-09T09:03:08.705Z,19.60
2018-09-09T09:05:36.680Z,19.60
2018-09-09T09:08:05.543Z,19.70
2018-09-09T09:10:33.499Z,19.90
2018-09-09T09:13:01.364Z,20.00
2018-09-09T09:15:29.305Z,20.10
2018-09-09T09:17:57.266Z,20.30
2018-09-09T09:20:25.166Z,20.30
2018-09-09T09:22:53.096Z,20.40
2018-09-09T09:25:21.118Z,20.40
2018-09-09T09:27:49.129Z,20.50
2018-09-09T09:30:17.149Z,20.60
2018-09-09T09:32:45.184Z,20.80
2018-09-09T09:35:13.071Z,20.90
2018-09-09T09:37:41.039Z,21.10
2018-09-09T09:40:08.966Z,21.20
2018-09-09T09:42:36.897Z,21.30
2018-09-09T09:45:04.856Z,21.30
2018-09-09T09:47:32.819Z,21.50
2018-09-09T09:50:00.777Z,21.60
2018-09-09T09:52:28.712Z,21.80
2018-09-09T09:54:56.621Z,21.90
2018-09-09T09:57:24.551Z,21.90
2018-09-09T09:59:52.497Z,22.10
2018-09-09T10:02:20.488Z,22.20
2018-09-09T10:04:48.397Z,22.30
2018-09-09T10:07:16.288Z,22.30
2018-09-09T10:09:44.241Z,22.30
2018-09-09T10:12:12.161Z,22.50
2018-09-09T10:14:40.093Z,22.50
2018-09-09T10:17:08.033Z,22.60
2018-09-09T10:19:36.013Z,22.70
2018-09-09T10:22:03.987Z,22.80
2018-09-09T10:24:31.890Z,22.80
2018-09-09T10:26:59.845Z,22.90
2018-09-09T10:29:27.794Z,22.90
2018-09-09T10:31:55.724Z,23.00
2018-09-09T10:34:23.683Z,23.10
2018-09-09T10:36:51.662Z,23.20
2018-09-09T10:39:19.558Z,23.30
2018-09-09T10:41:47.470Z,23.50
2018-09-09T10:44:15.513Z,23.60
2018-09-09T10:46:43.491Z,23.60
2018-09-09T10:49:11.373Z,23.70
2018-09-09T10:51:39.269Z,23.80
2018-09-09T10:54:07.317Z,23.80
2018-09-09T10:56:35.232Z,23.90
2018-09-09T10:59:03.210Z,24.10
2018-09-09T11:01:31.153Z,23.90
2018-09-09T11:03:59.085Z,23.60
2018-09-09T11:06:27.047Z,23.50
2018-09-09T11:08:55.001Z,23.80
2018-09-09T11:11:23.009Z,24.00
2018-09-09T11:13:51.017Z,24.00
2018-09-09T11:16:18.952Z,24.10
2018-09-09T11:18:46.925Z,24.00
2018-09-09T11:21:14.882Z,24.20
2018-09-09T11:23:42.909Z,24.40
2018-09-09T11:26:10.834Z,24.50
2018-09-09T11:28:38.788Z,24.40
2018-09-09T11:31:06.824Z,24.40
2018-09-09T11:33:34.832Z,24.50
2018-09-09T11:36:02.926Z,24.50
2018-09-09T11:38:30.958Z,24.50
2018-09-09T11:40:58.933Z,24.30
2018-09-09T11:43:26.833Z,24.40
2018-09-09T11:45:54.842Z,24.30
2018-09-09T11:48:22.813Z,24.40
2018-09-09T11:50:50.840Z,24.20
2018-09-09T11:53:19.040Z,24.20
2018-09-09T11:55:47.065Z,24.20
2018-09-09T11:58:15.065Z,24.40
2018-09-09T12:00:42.961Z,24.40
2018-09-09T12:03:10.949Z,24.70
2018-09-09T12:05:38.923Z,25.00
2018-09-09T12:08:06.912Z,25.30
2018-09-09T12:10:34.936Z,25.50
2018-09-09T12:13:02.920Z,25.30
2018-09-09T12:15:30.801Z,25.40
2018-09-09T12:17:58.765Z,25.60
2018-09-09T12:20:26.696Z,25.20
2018-09-09T12:22:54.701Z,25.40
2018-09-09T12:25:22.723Z,25.50
2018-09-09T12:27:50.763Z,25.70
2018-09-09T12:30:18.709Z,25.70
2018-09-09T12:32:47.513Z,25.80
2018-09-09T12:35:15.441Z,25.70
2018-09-09T12:37:43.411Z,25.80
2018-09-09T12:40:11.421Z,25.60
2018-09-09T12:42:39.385Z,25.40
2018-09-09T12:45:12.976Z,25.10
2018-09-09T12:47:46.429Z,25.00
2018-09-09T12:50:14.442Z,24.60
2018-09-09T12:52:42.391Z,24.40
2018-09-09T12:55:10.394Z,24.20
2018-09-09T12:57:38.368Z,24.30
2018-09-09T13:00:07.174Z,24.20
2018-09-09T13:02:35.186Z,24.20
2018-09-09T13:05:03.213Z,24.30
2018-09-09T13:07:31.189Z,24.30
2018-09-09T13:09:59.345Z,24.50
2018-09-09T13:12:31.893Z,24.60
2018-09-09T13:14:59.810Z,24.60
2018-09-09T13:17:27.725Z,24.70
2018-09-09T13:19:55.989Z,24.60
2018-09-09T13:22:24.800Z,24.70
2018-09-09T13:24:52.726Z,25.00
2018-09-09T13:27:20.659Z,25.10
2018-09-09T13:29:49.258Z,25.00
2018-09-09T13:32:17.837Z,25.10
2018-09-09T13:34:46.377Z,25.50
2018-09-09T13:37:14.318Z,25.40
2018-09-09T13:39:42.401Z,25.50
2018-09-09T13:42:10.344Z,25.70
2018-09-09T13:44:39.304Z,25.90
2018-09-09T13:47:08.094Z,26.10
2018-09-09T13:49:37.637Z,26.00
2018-09-09T13:52:06.150Z,26.40
2018-09-09T13:54:34.060Z,26.70
2018-09-09T13:57:01.973Z,26.90
2018-09-09T13:59:30.350Z,26.70
2018-09-09T14:01:58.465Z,26.80
2018-09-09T14:04:27.084Z,27.30
2018-09-09T14:09:22.837Z,28.00
2018-09-09T14:11:50.758Z,28.30
2018-09-09T14:16:46.534Z,28.90
2018-09-09T14:21:42.508Z,30.10
2018-09-09T14:24:10.483Z,30.40
2018-09-09T14:26:38.413Z,30.90
2018-09-09T14:29:06.930Z,31.10
2018-09-09T14:31:34.873Z,31.00
2018-09-09T14:34:02.770Z,30.70
2018-09-09T14:36:30.712Z,30.20
2018-09-09T14:38:58.682Z,30.20
2018-09-09T14:41:26.657Z,30.10
2018-09-09T14:43:54.814Z,30.10
2018-09-09T14:46:23.166Z,30.00
2018-09-09T14:48:51.116Z,29.80
2018-09-09T14:51:19.072Z,29.90
2018-09-09T14:53:46.969Z,29.80
2018-09-09T14:56:14.936Z,29.80
2018-09-09T14:58:42.941Z,29.70
2018-09-09T15:01:11.711Z,29.90
2018-09-09T15:03:39.732Z,29.80
2018-09-09T15:06:07.701Z,29.80
2018-09-09T15:08:35.658Z,29.70
2018-09-09T15:11:04.328Z,29.30
2018-09-09T15:13:32.857Z,29.40
2018-09-09T15:16:00.733Z,29.50
2018-09-09T15:18:28.748Z,29.70
2018-09-09T15:20:56.693Z,29.40
2018-09-09T15:23:24.708Z,29.20
2018-09-09T15:25:53.248Z,29.00
2018-09-09T15:28:21.225Z,28.90
2018-09-09T15:30:49.213Z,28.90
2018-09-09T15:33:17.144Z,29.10
2018-09-09T15:35:45.076Z,29.30
2018-09-09T15:38:13.061Z,29.60
2018-09-09T15:40:41.009Z,29.80
2018-09-09T15:43:09.359Z,29.90
2018-09-09T15:45:37.370Z,29.90
2018-09-09T15:48:05.315Z,29.70
2018-09-09T15:50:33.234Z,29.80
2018-09-09T15:53:01.100Z,29.60
2018-09-09T15:55:29.778Z,29.50
2018-09-09T15:57:57.736Z,29.30
2018-09-09T16:00:25.677Z,29.40
2018-09-09T16:02:53.645Z,29.30
2018-09-09T16:05:21.585Z,28.90
2018-09-09T16:07:49.600Z,28.70
2018-09-09T16:10:17.549Z,28.60
2018-09-09T16:12:45.579Z,28.40
2018-09-09T16:15:13.453Z,28.40
2018-09-09T16:17:41.410Z,28.30
2018-09-09T16:20:09.323Z,28.20
2018-09-09T16:22:37.286Z,28.10
2018-09-09T16:25:06.227Z,28.00
2018-09-09T16:27:34.229Z,28.00
2018-09-09T16:30:02.184Z,28.00
2018-09-09T16:32:30.184Z,27.70
2018-09-09T16:34:58.164Z,27.60
2018-09-09T16:37:26.056Z,27.70
2018-09-09T16:39:54.075Z,27.60
2018-09-09T16:42:22.066Z,27.50
2018-09-09T16:44:50.086Z,27.40
2018-09-09T16:47:18.281Z,27.30
2018-09-09T16:49:46.248Z,27.20
2018-09-09T16:52:14.747Z,27.00
2018-09-09T16:54:42.710Z,26.90
2018-09-09T16:57:12.221Z,26.70
2018-09-09T16:59:40.436Z,26.60
2018-09-09T17:02:08.716Z,26.40
2018-09-09T17:04:36.665Z,26.30
2018-09-09T17:09:32.633Z,25.90
2018-09-09T17:12:00.715Z,25.70
2018-09-09T17:14:28.693Z,25.60
2018-09-09T17:16:56.634Z,25.40
2018-09-09T17:19:24.641Z,25.40
2018-09-09T17:21:53.160Z,25.20
2018-09-09T17:24:21.133Z,24.90
2018-09-09T17:26:49.089Z,24.70
2018-09-09T17:29:17.082Z,24.50
2018-09-09T17:31:45.072Z,24.20
2018-09-09T17:34:13.858Z,24.00
2018-09-09T17:36:41.820Z,23.80
2018-09-09T17:39:10.582Z,23.60
2018-09-09T17:41:38.899Z,23.60
2018-09-09T17:44:06.933Z,23.50
2018-09-09T17:46:35.717Z,23.30
2018-09-09T17:49:04.350Z,23.00
2018-09-09T17:51:32.315Z,22.80
2018-09-09T17:54:00.444Z,22.60
2018-09-09T17:56:28.417Z,22.40
2018-09-09T17:58:56.361Z,22.20
2018-09-09T18:01:24.312Z,22.00
2018-09-09T18:03:52.262Z,21.90
2018-09-09T18:06:20.496Z,21.70
2018-09-09T18:08:48.483Z,21.50
2018-09-09T18:11:16.420Z,21.40
2018-09-09T18:13:44.449Z,21.30
2018-09-09T18:16:12.385Z,21.20
2018-09-09T18:18:40.384Z,21.10
2018-09-09T18:21:08.358Z,21.00
2018-09-09T18:23:36.375Z,20.90
2018-09-09T18:26:04.350Z,20.80
2018-09-09T18:28:32.305Z,20.50
2018-09-09T18:31:00.257Z,20.50
2018-09-09T18:33:28.368Z,20.80
2018-09-09T18:35:56.334Z,20.70
2018-09-09T18:38:24.308Z,20.50
2018-09-09T18:40:52.281Z,20.50
2018-09-09T18:43:20.196Z,20.50
2018-09-09T18:45:48.140Z,20.40
2018-09-09T18:48:16.140Z,20.30
2018-09-09T18:50:44.057Z,20.20
2018-09-09T18:53:12.043Z,20.10
2018-09-09T18:55:40.149Z,20.10
2018-09-09T18:58:08.143Z,19.80
2018-09-09T19:00:36.049Z,19.80
2018-09-09T19:03:04.017Z,19.80
2018-09-09T19:05:32.305Z,19.60
2018-09-09T19:08:00.241Z,19.50
2018-09-09T19:10:28.193Z,19.30
2018-09-09T19:12:56.131Z,19.10
2018-09-09T19:15:24.099Z,19.00
2018-09-09T19:17:52.073Z,18.80
2018-09-09T19:20:20.189Z,18.80
2018-09-09T19:22:48.123Z,18.70
2018-09-09T19:25:22.673Z,18.60
2018-09-09T19:27:50.648Z,18.40
2018-09-09T19:30:18.665Z,18.50
2018-09-09T19:32:47.560Z,18.40
2018-09-09T19:35:16.070Z,18.40
2018-09-09T19:37:43.987Z,18.40
2018-09-09T19:40:11.956Z,18.30
2018-09-09T19:42:39.920Z,18.30
2018-09-09T19:45:07.902Z,18.20
2018-09-09T19:47:36.013Z,18.20
2018-09-09T19:50:05.046Z,18.10
2018-09-09T19:52:33.310Z,18.00
2018-09-09T19:55:01.309Z,18.00
2018-09-09T19:57:31.073Z,17.80
2018-09-09T19:59:59.043Z,17.80
2018-09-09T20:02:27.554Z,17.70
2018-09-09T20:04:55.702Z,17.60
2018-09-09T20:07:23.628Z,17.50
2018-09-09T20:09:51.911Z,17.40
2018-09-09T20:12:19.845Z,17.30
2018-09-09T20:14:54.818Z,17.30
2018-09-09T20:17:22.855Z,17.30
2018-09-09T20:19:50.824Z,17.20
2018-09-09T20:22:19.290Z,17.30
2018-09-09T20:24:47.206Z,17.30
2018-09-09T20:27:15.214Z,17.20
2018-09-09T20:29:43.178Z,17.20
2018-09-09T20:32:11.106Z,17.10
2018-09-09T20:34:39.064Z,17.10
2018-09-09T20:37:07.036Z,17.10
2018-09-09T20:39:35.000Z,17.20
2018-09-09T20:42:02.982Z,17.10
2018-09-09T20:44:30.965Z,17.00
2018-09-09T20:46:58.921Z,17.00
2018-09-09T20:49:27.217Z,16.90
2018-09-09T20:51:58.737Z,16.90
2018-09-09T20:54:26.963Z,16.70
2018-09-09T20:56:56.789Z,16.60
2018-09-09T20:59:27.446Z,16.40
2018-09-09T21:01:55.485Z,16.50
2018-09-09T21:04:23.517Z,16.40
2018-09-09T21:06:51.449Z,16.40
2018-09-09T21:09:19.418Z,16.30
2018-09-09T21:11:47.298Z,16.10
2018-09-09T21:14:15.290Z,16.00
2018-09-09T21:16:43.339Z,15.90
2018-09-09T21:19:11.760Z,15.80
2018-09-09T21:21:39.737Z,15.80
2018-09-09T21:24:07.766Z,15.80
2018-09-09T21:26:35.726Z,15.60
2018-09-09T21:29:04.330Z,15.60
2018-09-09T21:31:32.285Z,15.50
2018-09-09T21:34:01.000Z,15.50
2018-09-09T21:36:29.181Z,15.40
2018-09-09T21:38:57.104Z,15.40
2018-09-09T21:41:25.018Z,15.50
2018-09-09T21:43:52.924Z,15.50
2018-09-09T21:46:20.828Z,15.40
2018-09-09T21:48:48.800Z,15.50
2018-09-09T21:51:16.716Z,15.40
2018-09-09T21:53:44.734Z,15.30
2018-09-09T21:56:12.769Z,15.20
2018-09-09T21:58:41.386Z,15.10
2018-09-09T22:01:14.801Z,15.10
2018-09-09T22:03:42.806Z,15.00
2018-09-09T22:06:11.496Z,15.10
2018-09-09T22:08:39.482Z,15.20
2018-09-09T22:11:07.489Z,15.30
2018-09-09T22:13:35.453Z,15.20
2018-09-09T22:16:03.433Z,15.00
2018-09-09T22:18:31.472Z,14.90
2018-09-09T22:20:59.450Z,14.80
2018-09-09T22:23:27.459Z,14.80
2018-09-09T22:25:55.367Z,14.70
2018-09-09T22:28:23.347Z,14.80
2018-09-09T22:30:51.505Z,14.70
2018-09-09T22:33:19.455Z,14.60
2018-09-09T22:35:47.428Z,14.70
2018-09-09T22:38:15.465Z,14.70
2018-09-09T22:40:43.574Z,14.70
2018-09-09T22:43:11.559Z,14.70
2018-09-09T22:45:40.426Z,14.60
2018-09-09T22:48:08.535Z,14.60
2018-09-09T22:50:36.459Z,14.60
2018-09-09T22:53:04.398Z,14.60
2018-09-09T22:55:32.456Z,14.70
2018-09-09T22:58:01.353Z,14.70
2018-09-09T23:00:29.349Z,14.70
2018-09-09T23:02:57.245Z,14.70
2018-09-09T23:05:25.213Z,14.80
2018-09-09T23:07:53.265Z,14.80
2018-09-09T23:10:21.277Z,14.80
2018-09-09T23:12:49.230Z,14.90
2018-09-09T23:15:21.330Z,14.70
2018-09-09T23:17:49.315Z,14.60
2018-09-09T23:20:17.247Z,14.60
2018-09-09T23:22:45.605Z,14.60
2018-09-09T23:25:13.520Z,14.50
2018-09-09T23:27:41.521Z,14.40
2018-09-09T23:30:09.532Z,14.40
2018-09-09T23:32:37.484Z,14.30
2018-09-09T23:35:05.568Z,14.30
2018-09-09T23:37:33.524Z,14.20
2018-09-09T23:40:01.707Z,14.20
2018-09-09T23:42:30.221Z,14.20
2018-09-09T23:44:58.165Z,14.10
2018-09-09T23:47:26.115Z,14.00
2018-09-09T23:49:54.065Z,13.90
2018-09-09T23:52:21.997Z,13.80
2018-09-09T23:54:51.035Z,13.70
2018-09-09T23:57:19.072Z,13.60
2018-09-09T23:59:47.134Z,13.60
